PDT,Max TemperatureF,Mean TemperatureF,Min TemperatureF,Max Dew PointF,MeanDew PointF,Min DewpointF,Max Humidity, Mean Humidity, Min Humidity, Max Sea Level PressureIn, Mean Sea Level PressureIn, Min Sea Level PressureIn, Max VisibilityMiles, Mean VisibilityMiles, Min VisibilityMiles, Max Wind SpeedMPH, Mean Wind SpeedMPH, Max Gust SpeedMPH,PrecipitationIn, CloudCover, Events, WindDirDegrees
2011-9-1,75,58,42,52,47,41,100,70,37,30.22,30.17,30.13,10,9,2,13,3,,0.00,0,,274
2011-9-2,72,60,48,52,48,44,92,66,39,30.26,30.22,30.17,10,10,10,10,4,,0.00,2,Rain,32
2011-9-3,79,61,43,51,46,40,94,63,26,30.20,30.10,29.96,10,10,8,14,3,17,0.00,0,,27
2011-9-4,86,64,43,51,45,33,95,54,15,29.95,29.91,29.86,10,10,10,7,2,,0.00,0,Rain,8
2011-9-5,82,63,44,53,47,36,91,58,19,30.06,29.96,29.91,10,10,10,9,2,,0.00,0,Rain,323
2011-9-6,84,66,47,55,51,46,94,63,31,30.16,30.12,30.07,10,10,10,7,2,,0.00,0,Rain,33
2011-9-7,82,64,46,54,50,45,95,63,33,30.14,30.10,30.03,10,10,10,14,3,17,0.00,0,,11
2011-9-8,83,68,52,54,52,49,90,65,32,30.19,30.15,30.09,10,10,10,8,2,,0.00,1,,24
2011-9-9,83,66,49,57,52,48,94,63,32,30.23,30.16,30.07,10,10,10,14,3,,0.00,0,Rain,8
2011-9-10,82,66,50,58,54,48,94,70,43,30.07,29.98,29.89,10,10,10,10,3,,0.00,0,,24
2011-9-11,85,68,50,57,53,48,100,77,29,29.95,29.87,29.83,10,6,0,9,1,,0.00,0,Fog-Rain,5
2011-9-12,70,62,55,56,55,52,90,81,63,30.14,30.09,30.00,10,10,10,10,4,,0.00,5,,249
2011-9-13,65,62,57,55,54,51,94,81,64,30.19,30.15,30.10,10,10,7,7,4,,0.00,8,,183
2011-9-14,67,62,59,55,53,51,84,73,57,30.10,30.04,29.96,10,10,10,7,1,,0.00,8,,298
2011-9-15,66,60,53,54,51,49,90,71,60,30.04,29.99,29.96,10,10,10,15,8,20,0.00,7,,211
2011-9-16,65,52,41,51,44,40,93,73,43,30.09,30.05,30.01,10,10,10,10,6,,0.00,4,,216
2011-9-17,62,54,47,54,50,44,100,85,66,30.12,30.08,30.04,10,10,4,14,5,,0.20,8,Rain,166
2011-9-18,66,58,51,61,58,50,100,93,73,30.16,30.10,30.04,10,8,2,10,4,,0.31,8,Rain,226
2011-9-19,68,60,48,57,52,46,100,78,46,30.27,30.21,30.12,10,10,5,10,5,,0.00,4,Rain,36
2011-9-20,77,59,41,53,47,39,100,75,38,30.21,30.13,30.05,10,8,2,7,2,,0.00,0,Rain,179
2011-9-21,77,64,53,57,54,51,92,72,46,30.07,30.02,29.97,10,10,10,6,2,,0.00,5,Rain,227
2011-9-22,78,67,56,63,58,54,96,72,56,30.04,30.01,29.97,10,10,10,14,6,22,0.00,7,,213
2011-9-23,81,69,58,67,60,57,100,92,55,30.08,30.02,29.91,10,4,0,14,2,,0.00,2,Fog,165
2011-9-24,77,67,57,63,61,56,100,88,57,29.96,29.81,29.66,10,7,1,10,3,,0.00,6,Rain,302
2011-9-25,66,58,50,56,53,48,94,79,58,30.02,29.84,29.67,10,9,3,25,10,33,0.21,5,Rain,197
2011-9-26,63,56,49,56,52,47,95,80,67,30.01,29.89,29.81,10,10,5,20,9,30,0.27,7,Rain,172
2011-9-27,64,56,49,55,52,45,95,77,50,30.35,30.13,29.98,10,10,6,15,10,23,0.01,6,Rain,220
2011-9-28,64,52,42,48,45,41,100,82,50,30.44,30.32,30.09,10,9,1,17,4,21,0.00,1,,49
2011-9-29,77,58,39,55,43,39,100,89,26,30.07,29.99,29.84,10,5,0,6,2,,0.00,0,Fog,177
2011-9-30,66,56,45,54,50,44,96,79,62,29.99,29.93,29.90,10,10,9,12,3,,0.00,2,Rain,38